Time;durP1;ratioP1;P1;durP2;ratioP2;P2;SDS_P1;SDS_P2;PMS_P1;PMS_P2;Temp;Humidity;BMP_temperature;BMP_pressure;BME280_temperature;BME280_humidity;BME280_pressure;Samples;Min_cycle;Max_cycle;Signal;HPM_P1;HPM_P2
2022/03/13 00:02:16;;;;;;;17.27;6.65;;;8.20;99.90;;;;;;5032282;28;20085;-78
2022/03/13 00:04:44;;;;;;;6.90;3.65;;;8.20;99.90;;;;;;5032718;28;20453;-78
2022/03/13 00:07:19;;;;;;;8.65;4.05;;;8.10;99.90;;;;;;5032803;28;20049;-78
2022/03/13 00:09:48;;;;;;;8.02;3.42;;;8.00;99.90;;;;;;5032877;28;20037;-78
2022/03/13 00:12:15;;;;;;;8.13;3.90;;;8.00;99.90;;;;;;5032704;28;20081;-74
2022/03/13 00:14:43;;;;;;;5.72;3.60;;;8.00;99.90;;;;;;5035225;28;20489;-78
2022/03/13 00:17:14;;;;;;;8.65;4.65;;;8.10;99.90;;;;;;5032535;28;20033;-78
2022/03/13 00:19:39;;;;;;;5.32;3.30;;;7.90;99.90;;;;;;5032620;28;20044;-78
2022/03/13 00:22:06;;;;;;;8.30;4.22;;;8.00;99.90;;;;;;5032562;28;20037;-75
2022/03/13 00:24:33;;;;;;;9.13;3.58;;;7.90;99.90;;;;;;5032648;28;20179;-75
2022/03/13 00:27:00;;;;;;;12.43;5.07;;;8.10;99.90;;;;;;5032697;28;20053;-73
2022/03/13 00:29:27;;;;;;;28.65;10.40;;;8.30;99.90;;;;;;5032748;28;20041;-78
2022/03/13 00:31:53;;;;;;;6.20;4.30;;;8.30;99.90;;;;;;5032576;28;20041;-78
2022/03/13 00:34:19;;;;;;;7.70;4.95;;;8.00;99.90;;;;;;5032101;28;20099;-80
2022/03/13 00:36:45;;;;;;;7.03;4.78;;;7.70;99.90;;;;;;5032393;28;20037;-75
2022/03/13 00:39:11;;;;;;;17.25;8.60;;;7.60;99.90;;;;;;5032458;28;20043;-79
2022/03/13 00:41:38;;;;;;;17.50;8.60;;;7.40;99.90;;;;;;5032270;28;20072;-78
2022/03/13 00:44:05;;;;;;;36.10;14.18;;;7.20;99.90;;;;;;5032169;28;20041;-79
2022/03/13 00:46:31;;;;;;;12.02;6.05;;;7.20;99.90;;;;;;5032604;28;20071;-74
2022/03/13 00:48:57;;;;;;;6.90;4.72;;;7.30;99.90;;;;;;5047967;28;20049;-74
2022/03/13 00:51:23;;;;;;;7.10;4.65;;;7.30;99.90;;;;;;5052368;28;20049;-79
2022/03/13 00:53:49;;;;;;;7.82;4.63;;;7.40;99.90;;;;;;5052203;28;20056;-79
2022/03/13 00:56:15;;;;;;;9.30;4.93;;;7.30;99.90;;;;;;5052195;28;20051;-78
2022/03/13 00:58:41;;;;;;;31.15;12.43;;;7.20;99.90;;;;;;5052072;28;20117;-78
2022/03/13 01:01:10;;;;;;;86.38;27.77;;;7.10;99.90;;;;;;5051898;28;20110;-78
2022/03/13 01:03:35;;;;;;;11.18;5.72;;;7.10;99.90;;;;;;5052009;28;20055;-73
2022/03/13 01:06:02;;;;;;;9.60;5.97;;;7.10;99.90;;;;;;5053210;28;20037;-78
2022/03/13 01:08:29;;;;;;;11.10;6.03;;;7.10;99.90;;;;;;5055891;28;20118;-81
2022/03/13 01:10:55;;;;;;;7.80;5.85;;;7.10;99.90;;;;;;5055719;28;20037;-80
2022/03/13 01:13:22;;;;;;;9.77;5.63;;;7.00;99.90;;;;;;5055619;28;20071;-78
2022/03/13 01:15:49;;;;;;;14.70;6.18;;;7.10;99.90;;;;;;5055673;28;20118;-80
2022/03/13 01:18:16;;;;;;;17.58;8.18;;;7.20;99.90;;;;;;5055566;28;20041;-78
2022/03/13 01:20:47;;;;;;;32.35;13.80;;;7.30;99.90;;;;;;5055538;28;20044;-78
2022/03/13 01:23:15;;;;;;;13.45;6.70;;;7.00;99.90;;;;;;5055309;28;20036;-80
2022/03/13 01:25:41;;;;;;;7.50;4.97;;;7.10;99.90;;;;;;5047913;28;20049;-80
2022/03/13 01:28:07;;;;;;;7.65;4.50;;;7.00;99.90;;;;;;5032918;28;20447;-71
2022/03/13 01:30:33;;;;;;;5.70;3.70;;;7.10;99.90;;;;;;5033695;28;20046;-72
2022/03/13 01:32:59;;;;;;;18.40;7.72;;;7.10;99.90;;;;;;5033733;28;20088;-80
2022/03/13 01:35:25;;;;;;;8.27;4.78;;;7.10;99.90;;;;;;5035368;28;20083;-77
2022/03/13 01:37:52;;;;;;;6.32;3.67;;;7.10;99.90;;;;;;5035168;28;20259;-79
2022/03/13 01:40:23;;;;;;;7.82;4.60;;;7.10;99.90;;;;;;5034983;28;20076;-80
2022/03/13 01:42:50;;;;;;;6.18;3.58;;;7.10;99.90;;;;;;5035278;28;20037;-79
2022/03/13 01:45:19;;;;;;;5.82;3.65;;;7.10;99.90;;;;;;5035034;28;20033;-75
2022/03/13 01:47:47;;;;;;;5.57;3.83;;;6.90;99.90;;;;;;5035104;28;20041;-80
2022/03/13 01:50:14;;;;;;;6.93;4.78;;;6.80;99.90;;;;;;5034945;28;20061;-80
2022/03/13 01:52:44;;;;;;;5.93;4.05;;;6.60;99.90;;;;;;5034757;28;20053;-74
2022/03/13 01:55:11;;;;;;;6.18;4.30;;;6.60;99.90;;;;;;5034640;28;20033;-79
2022/03/13 01:57:37;;;;;;;4.03;3.55;;;6.70;99.90;;;;;;5034583;28;20057;-79
2022/03/13 02:00:07;;;;;;;5.30;4.00;;;6.70;99.90;;;;;;5034526;28;20207;-73
2022/03/13 02:02:34;;;;;;;5.35;3.20;;;6.70;99.90;;;;;;5034545;28;20424;-79
2022/03/13 02:05:00;;;;;;;7.60;4.32;;;6.70;99.90;;;;;;5034562;28;20090;-79
2022/03/13 02:07:28;;;;;;;5.50;3.60;;;6.70;99.90;;;;;;5034401;28;20445;-79
2022/03/13 02:09:54;;;;;;;6.22;3.80;;;6.50;99.90;;;;;;5034591;28;20116;-78
2022/03/13 02:12:23;;;;;;;6.22;3.38;;;6.60;99.90;;;;;;5034613;28;20055;-72
2022/03/13 02:14:50;;;;;;;4.22;2.63;;;6.50;99.90;;;;;;5034473;28;20525;-71
2022/03/13 02:17:27;;;;;;;4.50;3.25;;;6.50;99.90;;;;;;5034271;28;20052;-75
2022/03/13 02:19:55;;;;;;;3.97;3.10;;;6.60;99.90;;;;;;5034109;28;20064;-79
2022/03/13 02:22:21;;;;;;;5.13;3.15;;;6.60;99.90;;;;;;5034133;28;20400;-78
2022/03/13 02:24:50;;;;;;;3.95;3.08;;;6.70;99.90;;;;;;5034156;28;20095;-79
2022/03/13 02:27:25;;;;;;;3.70;2.97;;;6.70;99.90;;;;;;5036487;28;20065;-79
2022/03/13 02:29:51;;;;;;;3.72;2.85;;;6.70;99.90;;;;;;5034418;28;20412;-79
2022/03/13 02:32:18;;;;;;;4.47;2.28;;;6.70;99.90;;;;;;5034064;28;20120;-78
2022/03/13 02:34:46;;;;;;;3.65;2.88;;;6.70;99.90;;;;;;5034152;28;20132;-78
2022/03/13 02:37:29;;;;;;;11.95;3.42;;;6.70;99.90;;;;;;5034184;28;20094;-79
2022/03/13 02:39:55;;;;;;;3.92;2.92;;;6.40;99.90;;;;;;5034179;28;20524;-74
2022/03/13 02:42:21;;;;;;;5.70;3.08;;;6.50;99.90;;;;;;5033955;28;20428;-74
2022/03/13 02:44:49;;;;;;;3.40;2.78;;;6.60;99.90;;;;;;5034178;28;20055;-79
2022/03/13 02:47:14;;;;;;;4.53;2.97;;;6.50;99.90;;;;;;5034124;28;20459;-79
2022/03/13 02:49:40;;;;;;;3.50;2.60;;;6.60;99.90;;;;;;5049039;28;20033;-78
2022/03/13 02:52:06;;;;;;;19.23;7.03;;;6.70;99.90;;;;;;5053514;28;20029;-79
2022/03/13 02:54:33;;;;;;;49.65;16.63;;;6.90;99.90;;;;;;5053559;28;20049;-80
2022/03/13 02:56:59;;;;;;;19.15;7.35;;;7.00;99.90;;;;;;5042391;28;20093;-79
2022/03/13 02:59:26;;;;;;;12.02;5.28;;;7.00;99.90;;;;;;5028531;28;20044;-73
2022/03/13 03:01:52;;;;;;;6.85;3.28;;;7.10;99.90;;;;;;5033588;28;20516;-79
2022/03/13 03:04:21;;;;;;;43.70;14.80;;;7.00;99.90;;;;;;5032330;28;20056;-79
2022/03/13 03:06:59;;;;;;;20.88;8.68;;;7.00;99.90;;;;;;5033523;28;20036;-79
2022/03/13 03:09:31;;;;;;;27.50;9.77;;;7.00;99.90;;;;;;5033533;28;20045;-78
2022/03/13 03:12:04;;;;;;;9.25;4.50;;;7.10;99.90;;;;;;5033629;28;20057;-79
2022/03/13 03:14:30;;;;;;;14.30;5.95;;;7.20;99.90;;;;;;5034671;28;20049;-74
2022/03/13 03:16:57;;;;;;;12.60;6.30;;;7.40;99.90;;;;;;5052479;28;20040;-78
2022/03/13 03:19:25;;;;;;;10.23;5.90;;;7.40;99.90;;;;;;5053091;28;20144;-76
2022/03/13 03:21:52;;;;;;;13.60;7.18;;;7.50;99.90;;;;;;5052998;28;20565;-74
2022/03/13 03:24:23;;;;;;;11.25;6.28;;;7.50;99.90;;;;;;5035367;28;20412;-79
2022/03/13 03:26:50;;;;;;;6.95;4.70;;;7.50;99.90;;;;;;5053294;28;20028;-78
2022/03/13 03:29:16;;;;;;;17.27;8.57;;;7.60;99.90;;;;;;5052767;28;20124;-79
2022/03/13 03:31:44;;;;;;;5.22;3.00;;;7.50;99.90;;;;;;5053199;28;20128;-78
2022/03/13 03:34:18;;;;;;;5.45;3.30;;;7.30;99.90;;;;;;5053098;28;20064;-80
2022/03/13 03:36:49;;;;;;;4.47;3.15;;;7.10;99.90;;;;;;5052995;28;20079;-79
2022/03/13 03:39:17;;;;;;;16.83;9.80;;;7.10;99.90;;;;;;5053224;28;20120;-79
2022/03/13 03:41:45;;;;;;;17.35;7.40;;;7.00;99.90;;;;;;5053367;28;20033;-79
2022/03/13 03:44:11;;;;;;;13.30;7.88;;;6.90;99.90;;;;;;5053087;28;20048;-79
2022/03/13 03:46:38;;;;;;;14.50;7.65;;;6.90;99.90;;;;;;5053135;28;20037;-79
2022/03/13 03:49:04;;;;;;;8.45;5.60;;;7.00;99.90;;;;;;5052867;28;20049;-79
2022/03/13 03:51:30;;;;;;;8.30;5.82;;;7.00;99.90;;;;;;5052784;28;20442;-80
2022/03/13 03:53:56;;;;;;;7.40;5.28;;;6.90;99.90;;;;;;5052920;28;20083;-79
2022/03/13 03:56:22;;;;;;;11.18;7.22;;;6.90;99.90;;;;;;5052746;28;20087;-79
2022/03/13 03:58:48;;;;;;;4.72;3.78;;;6.90;99.90;;;;;;5052744;28;20049;-79
2022/03/13 04:01:15;;;;;;;7.68;5.15;;;7.00;99.90;;;;;;5052926;28;20032;-79
2022/03/13 04:03:41;;;;;;;6.25;4.35;;;7.00;99.90;;;;;;5052747;28;20056;-78
2022/03/13 04:06:07;;;;;;;7.85;5.28;;;7.00;99.90;;;;;;5052577;28;20080;-78
2022/03/13 04:08:33;;;;;;;5.43;3.47;;;7.10;99.90;;;;;;5038589;28;20044;-79
2022/03/13 04:11:00;;;;;;;7.20;3.60;;;7.20;99.90;;;;;;5032613;28;20044;-80
2022/03/13 04:13:27;;;;;;;5.88;3.90;;;7.20;99.90;;;;;;5032489;28;20041;-79
2022/03/13 04:15:52;;;;;;;5.15;3.58;;;7.60;99.90;;;;;;5032762;28;20056;-75
2022/03/13 04:18:19;;;;;;;6.30;3.50;;;7.50;99.90;;;;;;5032720;28;20037;-78
2022/03/13 04:20:45;;;;;;;9.45;4.32;;;7.60;99.90;;;;;;5032804;28;20505;-79
2022/03/13 04:23:11;;;;;;;7.80;3.88;;;7.60;99.90;;;;;;5032662;28;20415;-76
2022/03/13 04:25:38;;;;;;;7.18;4.00;;;7.70;99.90;;;;;;5032475;28;20041;-79
2022/03/13 04:28:04;;;;;;;4.90;3.20;;;7.80;99.90;;;;;;5032684;28;20044;-76
2022/03/13 04:30:34;;;;;;;6.10;3.63;;;7.90;99.90;;;;;;5032496;28;20122;-78
2022/03/13 04:33:00;;;;;;;5.47;3.88;;;7.90;99.90;;;;;;5032578;28;20049;-79
2022/03/13 04:35:26;;;;;;;6.80;3.90;;;7.90;99.90;;;;;;5032252;28;20037;-78
2022/03/13 04:37:52;;;;;;;5.75;3.70;;;7.90;99.90;;;;;;5032240;28;20123;-78
2022/03/13 04:40:18;;;;;;;6.70;3.85;;;7.90;99.90;;;;;;5032342;28;20504;-74
2022/03/13 04:42:45;;;;;;;5.38;4.03;;;7.90;99.90;;;;;;5036239;28;20088;-76
2022/03/13 04:45:12;;;;;;;5.93;3.83;;;7.90;99.90;;;;;;5036131;28;20496;-78
2022/03/13 04:47:38;;;;;;;5.93;3.95;;;7.90;99.90;;;;;;5036113;28;20094;-77
2022/03/13 04:50:04;;;;;;;6.20;3.38;;;7.80;99.90;;;;;;5043582;28;20397;-78
2022/03/13 04:52:30;;;;;;;7.32;3.90;;;7.90;99.90;;;;;;5035944;28;20183;-78
2022/03/13 04:54:56;;;;;;;5.55;3.05;;;8.10;99.90;;;;;;5036007;28;20137;-78
2022/03/13 04:57:22;;;;;;;5.38;3.95;;;8.10;99.90;;;;;;5036025;28;20096;-78
2022/03/13 04:59:48;;;;;;;6.35;3.88;;;8.00;99.90;;;;;;5036020;28;20767;-76
2022/03/13 05:02:14;;;;;;;5.10;3.83;;;8.00;99.90;;;;;;5036026;28;20063;-78
2022/03/13 05:04:41;;;;;;;4.60;3.22;;;8.00;99.90;;;;;;5035752;28;20038;-77
2022/03/13 05:07:07;;;;;;;5.15;3.47;;;8.10;99.90;;;;;;5035754;28;20505;-78
2022/03/13 05:09:33;;;;;;;8.20;4.07;;;8.10;99.90;;;;;;5035513;28;20044;-75
2022/03/13 05:12:09;;;;;;;5.65;3.78;;;8.10;99.90;;;;;;5035578;28;20136;-75
2022/03/13 05:14:35;;;;;;;6.32;3.70;;;8.10;99.90;;;;;;5035483;28;20055;-72
2022/03/13 05:17:01;;;;;;;9.68;3.67;;;8.10;99.90;;;;;;5035456;28;20033;-77
2022/03/13 05:19:27;;;;;;;5.15;3.53;;;8.00;99.90;;;;;;5035615;28;20381;-79
2022/03/13 05:21:52;;;;;;;8.13;4.10;;;7.80;99.90;;;;;;5035599;28;20508;-76
2022/03/13 05:24:18;;;;;;;5.85;3.78;;;7.70;99.90;;;;;;5035725;28;20040;-71
2022/03/13 05:26:45;;;;;;;5.88;4.03;;;7.90;99.90;;;;;;5035411;28;20571;-79
2022/03/13 05:29:11;;;;;;;4.97;3.38;;;8.00;99.90;;;;;;5035590;28;20124;-78
2022/03/13 05:31:39;;;;;;;7.72;3.95;;;7.90;99.90;;;;;;5032695;28;20068;-71
2022/03/13 05:34:05;;;;;;;6.18;3.85;;;7.90;99.90;;;;;;5035727;28;20057;-75
2022/03/13 05:36:31;;;;;;;9.05;4.20;;;7.70;99.90;;;;;;5033417;28;20063;-78
2022/03/13 05:38:57;;;;;;;5.70;4.05;;;7.70;99.90;;;;;;5033461;28;20037;-77
2022/03/13 05:41:22;;;;;;;8.00;3.63;;;7.80;99.90;;;;;;5035394;28;20034;-78
2022/03/13 05:43:49;;;;;;;7.78;4.00;;;7.90;99.90;;;;;;5035254;28;20069;-79
2022/03/13 05:46:15;;;;;;;6.30;4.00;;;7.80;99.90;;;;;;5034980;28;20044;-78
2022/03/13 05:48:41;;;;;;;7.18;4.28;;;7.90;99.90;;;;;;5013784;28;20042;-71
2022/03/13 05:51:07;;;;;;;7.10;4.00;;;7.80;99.90;;;;;;5014999;28;20038;-79
2022/03/13 05:53:33;;;;;;;6.40;4.03;;;7.90;99.90;;;;;;5014657;28;20062;-79
2022/03/13 05:55:58;;;;;;;5.53;3.10;;;7.90;99.90;;;;;;5015222;28;20417;-78
2022/03/13 05:58:24;;;;;;;5.00;3.42;;;8.10;99.90;;;;;;5015243;28;20046;-78
2022/03/13 06:01:01;;;;;;;6.13;3.65;;;8.10;99.90;;;;;;5014858;28;20037;-79
2022/03/13 06:03:27;;;;;;;5.35;3.90;;;8.10;99.90;;;;;;5014849;28;20046;-80
2022/03/13 06:05:55;;;;;;;6.60;3.97;;;7.90;99.90;;;;;;5014881;28;20493;-79
2022/03/13 06:08:20;;;;;;;5.90;4.18;;;7.80;99.90;;;;;;5015197;28;20064;-79
2022/03/13 06:10:46;;;;;;;7.20;4.10;;;7.70;99.90;;;;;;5014851;28;20489;-76
2022/03/13 06:13:13;;;;;;;9.00;4.00;;;7.60;99.90;;;;;;5014847;28;20115;-72
2022/03/13 06:15:38;;;;;;;8.38;4.88;;;7.50;99.90;;;;;;5014933;28;20038;-79
2022/03/13 06:18:04;;;;;;;6.72;4.47;;;7.30;99.90;;;;;;5014854;28;20489;-78
2022/03/13 06:20:30;;;;;;;4.70;3.95;;;7.30;99.90;;;;;;5014419;28;20037;-79
2022/03/13 06:22:57;;;;;;;7.93;4.85;;;7.30;99.90;;;;;;5014508;28;20038;-79
2022/03/13 06:25:23;;;;;;;15.18;5.13;;;7.20;99.90;;;;;;5014573;28;20034;-79
2022/03/13 06:27:49;;;;;;;6.32;3.95;;;7.10;99.90;;;;;;5014552;28;20053;-78
2022/03/13 06:30:16;;;;;;;5.80;4.20;;;7.10;99.90;;;;;;5012944;28;20041;-75
2022/03/13 06:32:45;;;;;;;6.75;3.97;;;7.10;99.90;;;;;;5033324;28;20486;-77
2022/03/13 06:35:12;;;;;;;6.30;4.15;;;7.00;99.90;;;;;;5034184;28;20040;-80
2022/03/13 06:37:38;;;;;;;8.55;3.85;;;6.90;99.90;;;;;;5032745;28;20095;-79
2022/03/13 06:40:06;;;;;;;6.03;3.72;;;6.90;99.90;;;;;;5034162;28;20419;-79
2022/03/13 06:42:33;;;;;;;7.03;3.65;;;7.00;99.90;;;;;;5034265;28;20060;-77
2022/03/13 06:45:00;;;;;;;8.40;3.20;;;7.30;99.90;;;;;;5034162;28;20037;-77
2022/03/13 06:47:26;;;;;;;5.97;2.95;;;7.70;99.90;;;;;;5034035;28;20064;-73
2022/03/13 06:49:52;;;;;;;4.35;3.28;;;8.10;99.90;;;;;;5050877;28;20045;-79
2022/03/13 06:52:18;;;;;;;10.95;3.50;;;8.20;99.90;;;;;;5053757;28;20051;-76
2022/03/13 06:54:45;;;;;;;4.57;2.60;;;8.20;99.90;;;;;;5053651;28;20519;-73
2022/03/13 06:57:14;;;;;;;4.18;2.85;;;8.20;99.90;;;;;;5053670;28;20039;-76
2022/03/13 06:59:42;;;;;;;4.28;3.13;;;8.20;99.90;;;;;;5053430;28;20090;-80
2022/03/13 07:02:08;;;;;;;4.20;2.75;;;8.20;99.90;;;;;;5053637;28;20982;-79
2022/03/13 07:04:34;;;;;;;5.13;3.00;;;8.20;99.90;;;;;;5053064;28;20399;-79
2022/03/13 07:07:00;;;;;;;4.53;2.72;;;8.20;99.90;;;;;;5053537;28;20052;-80
2022/03/13 07:09:26;;;;;;;5.05;2.90;;;8.30;99.90;;;;;;5053425;28;20044;-80
2022/03/13 07:11:52;;;;;;;3.97;2.35;;;8.40;99.90;;;;;;5053440;28;20040;-79
2022/03/13 07:14:20;;;;;;;4.53;2.60;;;8.40;99.90;;;;;;5053481;28;20071;-80
2022/03/13 07:16:46;;;;;;;7.53;3.03;;;8.50;99.90;;;;;;5053152;28;20473;-77
2022/03/13 07:19:12;;;;;;;4.40;2.80;;;8.50;99.90;;;;;;5053293;28;20136;-79
2022/03/13 07:21:38;;;;;;;5.07;2.72;;;8.50;99.90;;;;;;5053227;28;20064;-79
2022/03/13 07:24:05;;;;;;;3.22;2.55;;;8.60;99.90;;;;;;5053276;28;20120;-77
2022/03/13 07:26:30;;;;;;;4.85;2.58;;;8.60;99.90;;;;;;5053200;28;20053;-79
2022/03/13 07:28:56;;;;;;;3.33;2.50;;;8.60;99.90;;;;;;5041022;28;20041;-79
2022/03/13 07:31:22;;;;;;;3.22;2.30;;;8.70;99.90;;;;;;5032564;28;20091;-74
2022/03/13 07:33:48;;;;;;;3.10;2.60;;;8.60;99.90;;;;;;5032900;28;20103;-80
2022/03/13 07:36:14;;;;;;;5.45;2.88;;;8.70;99.90;;;;;;5033275;28;20045;-82
2022/03/13 07:38:39;;;;;;;3.85;2.30;;;8.70;99.90;;;;;;5032339;28;20041;-80
2022/03/13 07:41:05;;;;;;;8.05;3.40;;;8.80;99.90;;;;;;5033235;28;20045;-82
2022/03/13 07:43:33;;;;;;;6.10;3.08;;;8.80;99.90;;;;;;5032345;28;20030;-79
2022/03/13 07:45:59;;;;;;;7.75;4.55;;;8.90;99.90;;;;;;5033006;28;20052;-80
2022/03/13 07:48:24;;;;;;;15.98;8.43;;;8.90;99.90;;;;;;5032899;28;20049;-80
2022/03/13 07:50:50;;;;;;;7.18;3.60;;;8.90;99.90;;;;;;5032887;28;20052;-82
2022/03/13 07:53:16;;;;;;;12.77;6.85;;;8.90;99.90;;;;;;5032549;28;20053;-82
2022/03/13 07:55:42;;;;;;;7.90;3.90;;;9.00;99.90;;;;;;5032607;28;20079;-84
2022/03/13 07:58:08;;;;;;;4.05;3.10;;;8.90;99.90;;;;;;5032202;28;20497;-76
2022/03/13 08:00:34;;;;;;;7.75;3.55;;;9.00;99.90;;;;;;5032793;28;20037;-80
2022/03/13 08:02:59;;;;;;;6.72;3.03;;;9.00;99.90;;;;;;5037266;28;20052;-79
2022/03/13 08:05:25;;;;;;;6.20;3.75;;;8.90;99.90;;;;;;5032658;28;20416;-77
2022/03/13 08:07:55;;;;;;;9.55;3.33;;;8.90;99.90;;;;;;5032598;28;20535;-71
2022/03/13 08:10:23;;;;;;;4.93;3.37;;;8.90;99.90;;;;;;5032762;28;20216;-75
2022/03/13 08:12:50;;;;;;;6.97;3.78;;;8.90;99.90;;;;;;5032564;28;20525;-76
2022/03/13 08:15:16;;;;;;;5.93;3.42;;;8.90;99.90;;;;;;5034097;28;20048;-78
2022/03/13 08:17:42;;;;;;;5.53;3.63;;;8.90;99.90;;;;;;5035492;28;20041;-77
2022/03/13 08:20:09;;;;;;;4.05;3.03;;;9.00;99.90;;;;;;5035170;28;20091;-70
2022/03/13 08:22:35;;;;;;;4.50;2.90;;;8.90;99.90;;;;;;5034793;28;20049;-78
2022/03/13 08:25:01;;;;;;;6.07;3.90;;;;;;;;;;5035756;28;20045;-72
2022/03/13 08:27:27;;;;;;;7.50;3.85;;;9.20;99.90;;;;;;5034878;28;20136;-79
2022/03/13 08:29:53;;;;;;;6.47;4.40;;;9.20;99.90;;;;;;5034321;28;20496;-78
2022/03/13 08:32:19;;;;;;;6.25;3.92;;;9.20;99.90;;;;;;5033810;28;20583;-80
2022/03/13 08:34:45;;;;;;;4.47;3.60;;;9.30;99.90;;;;;;5035352;28;20133;-79
2022/03/13 08:37:12;;;;;;;6.22;2.60;;;9.40;99.90;;;;;;5034136;28;20068;-78
2022/03/13 08:39:39;;;;;;;6.45;2.78;;;9.50;99.90;;;;;;5034353;28;20632;-78
2022/03/13 08:42:05;;;;;;;5.00;2.70;;;9.50;99.90;;;;;;5035896;28;20501;-70
2022/03/13 08:44:31;;;;;;;3.50;2.50;;;9.50;99.90;;;;;;5033944;28;20155;-79
2022/03/13 08:46:58;;;;;;;3.75;2.50;;;9.60;99.90;;;;;;5034122;28;20116;-72
2022/03/13 08:49:24;;;;;;;3.25;2.30;;;9.70;99.90;;;;;;5033715;28;20458;-77
2022/03/13 08:51:50;;;;;;;8.07;2.72;;;9.70;99.90;;;;;;5033342;28;20068;-78
2022/03/13 08:54:16;;;;;;;4.70;2.83;;;10.00;99.90;;;;;;5034389;28;20057;-73
2022/03/13 08:56:42;;;;;;;4.40;2.58;;;10.30;99.90;;;;;;5034582;28;20040;-79
2022/03/13 08:59:09;;;;;;;7.35;2.65;;;10.30;99.90;;;;;;5034139;28;20543;-80
2022/03/13 09:01:35;;;;;;;7.15;3.13;;;10.50;99.90;;;;;;5033943;28;20512;-78
2022/03/13 09:04:01;;;;;;;10.18;3.17;;;10.40;99.90;;;;;;5033741;28;20064;-76
2022/03/13 09:06:27;;;;;;;5.68;2.50;;;10.30;99.90;;;;;;5032738;28;20421;-76
2022/03/13 09:08:54;;;;;;;5.20;3.17;;;10.10;99.90;;;;;;5030735;28;20045;-79
2022/03/13 09:11:20;;;;;;;7.40;3.15;;;10.10;99.90;;;;;;5024540;28;20152;-75
2022/03/13 09:13:46;;;;;;;2.95;2.40;;;9.90;99.90;;;;;;5031369;28;20132;-72
2022/03/13 09:16:12;;;;;;;3.83;2.20;;;10.00;99.90;;;;;;5031945;28;20041;-79
2022/03/13 09:18:39;;;;;;;6.85;2.20;;;9.90;99.90;;;;;;5032255;28;20083;-76
2022/03/13 09:21:05;;;;;;;12.63;2.30;;;10.10;99.90;;;;;;5032967;28;20068;-76
2022/03/13 09:23:31;;;;;;;18.73;4.88;;;10.10;99.90;;;;;;5031746;28;20076;-75
2022/03/13 09:25:57;;;;;;;4.30;3.03;;;10.10;99.90;;;;;;5017129;28;20041;-76
2022/03/13 09:28:23;;;;;;;6.40;3.95;;;10.10;99.90;;;;;;5034581;28;20139;-80
2022/03/13 09:30:49;;;;;;;3.53;2.53;;;10.00;99.90;;;;;;5024797;28;20128;-78
2022/03/13 09:33:15;;;;;;;3.10;2.10;;;10.00;99.90;;;;;;5053231;28;20582;-76
2022/03/13 09:35:42;;;;;;;7.57;2.20;;;10.00;99.90;;;;;;5040494;28;20045;-77
2022/03/13 09:38:08;;;;;;;2.63;2.08;;;10.10;99.90;;;;;;5034200;28;20037;-76
2022/03/13 09:40:34;;;;;;;2.80;1.98;;;10.30;99.90;;;;;;5033890;28;20045;-77
2022/03/13 09:43:05;;;;;;;4.18;2.70;;;10.20;99.90;;;;;;5033315;28;20127;-77
2022/03/13 09:45:31;;;;;;;3.58;2.65;;;10.30;99.90;;;;;;5032871;28;20048;-76
2022/03/13 09:47:57;;;;;;;11.43;4.05;;;10.70;99.90;;;;;;5033232;28;20974;-76
2022/03/13 09:50:23;;;;;;;7.82;6.10;;;10.70;99.90;;;;;;5032967;28;20041;-73
2022/03/13 09:52:50;;;;;;;6.53;4.68;;;10.60;99.90;;;;;;5032403;28;20060;-76
2022/03/13 09:55:16;;;;;;;5.97;4.22;;;10.50;99.90;;;;;;5032985;28;20040;-77
2022/03/13 09:57:43;;;;;;;5.82;3.28;;;10.40;99.90;;;;;;5033273;28;20041;-73
2022/03/13 10:00:13;;;;;;;4.93;2.92;;;10.30;99.90;;;;;;5033036;28;20030;-76
2022/03/13 10:02:39;;;;;;;7.72;3.05;;;10.20;99.90;;;;;;5033273;28;20523;-76
2022/03/13 10:05:11;;;;;;;6.38;2.92;;;10.20;99.90;;;;;;5033200;28;20124;-76
2022/03/13 10:07:49;;;;;;;5.25;2.70;;;10.10;99.90;;;;;;5033651;28;20053;-77
2022/03/13 10:10:15;;;;;;;4.43;2.78;;;10.10;99.90;;;;;;5050363;28;20045;-77
2022/03/13 10:12:41;;;;;;;6.45;3.22;;;10.10;99.90;;;;;;5052420;28;20047;-77
2022/03/13 10:15:08;;;;;;;12.00;3.70;;;10.10;99.90;;;;;;5027330;28;20574;-70
2022/03/13 10:17:36;;;;;;;3.80;2.65;;;10.20;99.90;;;;;;5031637;28;20045;-77
2022/03/13 10:20:11;;;;;;;7.18;3.97;;;10.30;99.90;;;;;;5032328;28;20068;-76
2022/03/13 10:22:38;;;;;;;6.53;3.10;;;10.40;99.90;;;;;;5031965;28;20065;-72
2022/03/13 10:25:05;;;;;;;13.45;2.95;;;10.50;99.90;;;;;;5032682;28;20033;-76
2022/03/13 10:27:33;;;;;;;3.63;2.70;;;10.50;99.90;;;;;;5032191;28;20794;-76
2022/03/13 10:30:04;;;;;;;25.38;3.78;;;10.50;99.90;;;;;;5032200;28;20033;-71
2022/03/13 10:32:30;;;;;;;5.00;3.00;;;10.50;99.90;;;;;;5031943;28;20037;-72
2022/03/13 10:34:57;;;;;;;6.10;4.10;;;10.60;99.90;;;;;;5032320;28;20412;-75
2022/03/13 10:37:35;;;;;;;6.78;3.30;;;10.70;99.90;;;;;;5031519;28;20084;-74
2022/03/13 10:40:18;;;;;;;5.25;3.80;;;10.70;99.90;;;;;;5032434;28;20037;-76
2022/03/13 10:42:44;;;;;;;8.52;4.20;;;10.60;99.90;;;;;;5033928;28;20037;-76
2022/03/13 10:45:15;;;;;;;5.40;3.03;;;10.60;99.90;;;;;;5033800;28;20044;-71
2022/03/13 10:47:41;;;;;;;11.05;6.18;;;10.60;99.90;;;;;;5033449;28;20284;-70
2022/03/13 10:50:09;;;;;;;10.45;5.53;;;10.50;99.90;;;;;;5052508;28;20440;-72
2022/03/13 10:52:42;;;;;;;13.20;6.75;;;10.60;99.90;;;;;;5039169;28;20419;-75
2022/03/13 10:55:22;;;;;;;14.38;4.93;;;10.50;99.90;;;;;;5031230;28;20045;-75
2022/03/13 10:57:53;;;;;;;8.00;4.57;;;10.60;99.90;;;;;;5028880;28;20029;-71
2022/03/13 11:00:21;;;;;;;;;;;10.50;99.90;;;;;;5028867;28;20034;-70
2022/03/13 11:02:50;;;;;;;12.13;5.63;;;10.40;99.90;;;;;;5031242;28;19915;-71
2022/03/13 11:05:16;;;;;;;15.45;5.70;;;10.30;99.90;;;;;;5029795;28;20061;-71
2022/03/13 11:07:42;;;;;;;17.40;8.93;;;10.20;99.90;;;;;;5031217;28;20524;-73
2022/03/13 11:10:10;;;;;;;9.95;5.32;;;10.20;99.90;;;;;;5031043;28;20037;-74
2022/03/13 11:12:39;;;;;;;8.07;5.03;;;10.20;99.90;;;;;;5026362;28;20057;-74
2022/03/13 11:15:09;;;;;;;10.48;6.03;;;10.30;99.90;;;;;;5031057;28;20037;-70
2022/03/13 11:17:36;;;;;;;10.73;6.00;;;10.20;99.90;;;;;;5027584;28;20436;-74
2022/03/13 11:20:06;;;;;;;8.73;4.38;;;10.30;99.90;;;;;;5010820;28;20559;-75
2022/03/13 11:22:32;;;;;;;7.60;4.18;;;10.30;99.90;;;;;;5018692;28;20053;-76
2022/03/13 11:25:02;;;;;;;9.80;3.75;;;10.30;99.90;;;;;;5013056;28;20516;-70
2022/03/13 11:27:30;;;;;;;5.38;3.08;;;10.30;99.90;;;;;;5012213;28;20401;-72
2022/03/13 11:29:57;;;;;;;7.13;3.30;;;10.30;99.90;;;;;;5011781;28;20378;-69
2022/03/13 11:32:46;;;;;;;4.65;2.97;;;10.50;99.90;;;;;;4994920;28;20050;-71
2022/03/13 11:35:16;;;;;;;3.22;2.60;;;10.60;99.90;;;;;;5036926;28;20082;-71
2022/03/13 11:38:01;;;;;;;3.83;2.78;;;10.70;99.90;;;;;;5048427;28;20127;-71
2022/03/13 11:40:31;;;;;;;4.95;3.17;;;10.60;99.90;;;;;;5050784;28;20437;-69
2022/03/13 11:43:07;;;;;;;4.80;3.17;;;10.50;99.90;;;;;;5037915;28;20037;-69
2022/03/13 11:45:38;;;;;;;5.15;2.97;;;10.60;99.90;;;;;;5031539;28;20033;-73
2022/03/13 11:48:19;;;;;;;6.72;3.30;;;10.60;99.90;;;;;;5032824;28;20139;-69
2022/03/13 11:50:54;;;;;;;3.95;3.00;;;10.70;99.90;;;;;;5029767;28;20041;-69
2022/03/13 11:53:26;;;;;;;5.25;3.03;;;10.70;99.90;;;;;;5029181;28;20088;-69
2022/03/13 11:55:58;;;;;;;5.65;2.83;;;10.70;99.90;;;;;;5029942;28;20404;-70
2022/03/13 11:58:48;;;;;;;7.15;3.20;;;10.70;99.90;;;;;;5028969;28;20067;-71
2022/03/13 12:01:20;;;;;;;5.22;2.95;;;10.70;99.90;;;;;;5010467;28;20037;-70
2022/03/13 12:04:09;;;;;;;5.82;3.00;;;10.70;99.90;;;;;;5017168;28;20043;-74
2022/03/13 12:06:39;;;;;;;12.93;5.85;;;10.70;99.90;;;;;;5037770;28;20088;-73
2022/03/13 12:09:15;;;;;;;5.05;2.90;;;10.60;99.90;;;;;;5038302;28;20037;-75
2022/03/13 12:11:50;;;;;;;4.78;3.20;;;10.60;99.90;;;;;;5030723;28;20029;-70
2022/03/13 12:14:18;;;;;;;6.53;2.95;;;10.50;99.90;;;;;;5043749;28;20504;-69
2022/03/13 12:16:46;;;;;;;11.00;3.95;;;10.40;99.90;;;;;;5030392;28;20038;-69
2022/03/13 12:19:16;;;;;;;8.55;3.70;;;10.40;99.90;;;;;;5029848;28;20095;-74
2022/03/13 12:21:47;;;;;;;4.70;3.88;;;10.40;99.90;;;;;;5029212;28;20041;-71
2022/03/13 12:24:20;;;;;;;11.63;6.53;;;10.50;99.90;;;;;;5029817;28;20037;-71
2022/03/13 12:26:49;;;;;;;6.15;4.57;;;10.50;99.90;;;;;;5031155;28;20033;-71
2022/03/13 12:29:17;;;;;;;11.07;5.45;;;10.50;99.90;;;;;;5031592;28;20508;-73
2022/03/13 12:31:53;;;;;;;8.90;5.22;;;10.50;99.90;;;;;;5030641;28;20116;-69
2022/03/13 12:34:30;;;;;;;10.57;3.50;;;10.40;99.90;;;;;;5025852;28;20061;-72
2022/03/13 12:37:02;;;;;;;8.45;4.85;;;10.40;99.90;;;;;;5046776;28;20037;-81
2022/03/13 12:39:28;;;;;;;6.78;4.22;;;10.50;99.90;;;;;;5045490;28;20036;-69
2022/03/13 12:42:04;;;;;;;15.93;7.28;;;10.40;99.90;;;;;;5038854;28;20090;-75
2022/03/13 12:44:30;;;;;;;7.55;4.18;;;10.40;99.90;;;;;;5039653;28;20047;-70
2022/03/13 12:46:57;;;;;;;7.53;4.65;;;10.30;99.90;;;;;;5049007;28;20056;-70
2022/03/13 12:49:31;;;;;;;9.45;4.88;;;10.20;99.90;;;;;;5035090;28;20404;-68
2022/03/13 12:51:58;;;;;;;10.73;5.78;;;10.10;99.90;;;;;;5037922;28;20046;-68
2022/03/13 12:54:30;;;;;;;5.97;4.20;;;10.10;99.90;;;;;;5042865;28;20143;-68
2022/03/13 12:57:05;;;;;;;6.47;3.67;;;10.00;99.90;;;;;;5049478;28;20550;-70